IBB4933 LPPS-LPMA
Flight info
| Callsign | IBB4933 |
|---|---|
| Flight time | 0h 13m |
| Altitude | 7000 |
| Route | PILIM |
| Aircraft | CRJX/M-SDFGIRWY/S |
Departure
| Time | 2026-05-06 23:17 |
|---|---|
| Airport | Porto Santo Airport (LPPS) |
Arrival
| Time | 2026-05-06 23:31 |
|---|---|
| Airport | Cristiano Ronaldo International Airport (LPMA) |
| Time | Latitude | Longitude | Altitude | Speed | Heading |
|---|---|---|---|---|---|
| 2026-05-06 23:13 | 33.06995 | -16.34647 | 269 ft | 0 kts | 279° |
| 2026-05-06 23:16 | 33.06994 | -16.34668 | 269 ft | 11 kts | 269° |
| 2026-05-06 23:16 | 33.06967 | -16.34794 | 268 ft | 16 kts | 264° |
| 2026-05-06 23:16 | 33.06959 | -16.34924 | 269 ft | 13 kts | 269° |
| 2026-05-06 23:16 | 33.06970 | -16.34963 | 270 ft | 0 kts | 328° |
| 2026-05-06 23:17 | 33.07121 | -16.34985 | 275 ft | 58 kts | 359° |
| 2026-05-06 23:17 | 33.07760 | -16.35012 | 298 ft | 125 kts | 358° |
| 2026-05-06 23:17 | 33.08780 | -16.35049 | 549 ft | 158 kts | 358° |
| 2026-05-06 23:17 | 33.09953 | -16.35090 | 1158 ft | 180 kts | 359° |
| 2026-05-06 23:18 | 33.11260 | -16.35134 | 1885 ft | 193 kts | 359° |
| 2026-05-06 23:18 | 33.12624 | -16.35171 | 2702 ft | 198 kts | 359° |
| 2026-05-06 23:18 | 33.14012 | -16.35224 | 3566 ft | 201 kts | 354° |
| 2026-05-06 23:18 | 33.15259 | -16.35976 | 4310 ft | 209 kts | 314° |
| 2026-05-06 23:19 | 33.16301 | -16.37156 | 5158 ft | 206 kts | 328° |
| 2026-05-06 23:19 | 33.17390 | -16.38246 | 5967 ft | 209 kts | 302° |
| 2026-05-06 23:19 | 33.17626 | -16.39941 | 6546 ft | 217 kts | 260° |
| 2026-05-06 23:19 | 33.16804 | -16.41513 | 6806 ft | 239 kts | 222° |
| 2026-05-06 23:20 | 33.15401 | -16.42795 | 6908 ft | 261 kts | 218° |
| 2026-05-06 23:20 | 33.13885 | -16.44043 | 6966 ft | 270 kts | 212° |
| 2026-05-06 23:20 | 33.12162 | -16.45041 | 7004 ft | 280 kts | 205° |
| 2026-05-06 23:20 | 33.10332 | -16.45952 | 7024 ft | 289 kts | 204° |
| 2026-05-06 23:21 | 33.08462 | -16.46863 | 7034 ft | 298 kts | 204° |
| 2026-05-06 23:21 | 33.06527 | -16.47814 | 7035 ft | 305 kts | 205° |
| 2026-05-06 23:21 | 33.04562 | -16.48838 | 7016 ft | 311 kts | 206° |
| 2026-05-06 23:21 | 33.02561 | -16.49909 | 6876 ft | 321 kts | 205° |
| 2026-05-06 23:22 | 33.00546 | -16.50986 | 6642 ft | 310 kts | 206° |
| 2026-05-06 23:22 | 32.98632 | -16.52013 | 6378 ft | 293 kts | 206° |
| 2026-05-06 23:22 | 32.96834 | -16.52980 | 6086 ft | 275 kts | 206° |
| 2026-05-06 23:22 | 32.95134 | -16.53891 | 5797 ft | 261 kts | 206° |
| 2026-05-06 23:23 | 32.93519 | -16.54771 | 5505 ft | 249 kts | 206° |
| 2026-05-06 23:23 | 32.91966 | -16.55601 | 5180 ft | 241 kts | 206° |
| 2026-05-06 23:23 | 32.90451 | -16.56411 | 4819 ft | 237 kts | 206° |
| 2026-05-06 23:23 | 32.88963 | -16.57209 | 4422 ft | 233 kts | 206° |
| 2026-05-06 23:24 | 32.87494 | -16.57999 | 4045 ft | 230 kts | 205° |
| 2026-05-06 23:24 | 32.86039 | -16.58771 | 3665 ft | 227 kts | 205° |
| 2026-05-06 23:24 | 32.84654 | -16.59616 | 3393 ft | 219 kts | 214° |
| 2026-05-06 23:24 | 32.83441 | -16.60619 | 3249 ft | 205 kts | 219° |
| 2026-05-06 23:25 | 32.82325 | -16.61621 | 3186 ft | 197 kts | 219° |
| 2026-05-06 23:25 | 32.81210 | -16.62618 | 3194 ft | 202 kts | 219° |
| 2026-05-06 23:25 | 32.80083 | -16.63600 | 3221 ft | 205 kts | 218° |
| 2026-05-06 23:25 | 32.78954 | -16.64538 | 3196 ft | 191 kts | 217° |
| 2026-05-06 23:26 | 32.77881 | -16.65405 | 3160 ft | 177 kts | 217° |
| 2026-05-06 23:26 | 32.76918 | -16.66179 | 3057 ft | 167 kts | 217° |
| 2026-05-06 23:26 | 32.75900 | -16.67024 | 2680 ft | 188 kts | 218° |
| 2026-05-06 23:26 | 32.74817 | -16.67901 | 2422 ft | 188 kts | 215° |
| 2026-05-06 23:27 | 32.73768 | -16.68701 | 2360 ft | 169 kts | 216° |
| 2026-05-06 23:27 | 32.72805 | -16.69465 | 2135 ft | 173 kts | 217° |
| 2026-05-06 23:27 | 32.71772 | -16.70305 | 1962 ft | 181 kts | 217° |
| 2026-05-06 23:27 | 32.70705 | -16.71177 | 1625 ft | 192 kts | 216° |
| 2026-05-06 23:28 | 32.69584 | -16.72071 | 1283 ft | 197 kts | 215° |
| 2026-05-06 23:28 | 32.68423 | -16.72991 | 944 ft | 200 kts | 215° |
| 2026-05-06 23:28 | 32.67303 | -16.73907 | 767 ft | 191 kts | 218° |
| 2026-05-06 23:28 | 32.66275 | -16.74831 | 695 ft | 179 kts | 221° |
| 2026-05-06 23:29 | 32.65399 | -16.75777 | 775 ft | 153 kts | 233° |
| 2026-05-06 23:29 | 32.65011 | -16.76789 | 794 ft | 130 kts | 265° |
| 2026-05-06 23:29 | 32.65150 | -16.77880 | 449 ft | 141 kts | 297° |
| 2026-05-06 23:29 | 32.65644 | -16.78853 | 505 ft | 135 kts | 307° |
| 2026-05-06 23:30 | 32.66274 | -16.79724 | 510 ft | 138 kts | 320° |
| 2026-05-06 23:30 | 32.67135 | -16.80104 | 452 ft | 135 kts | 5° |
| 2026-05-06 23:30 | 32.67987 | -16.79574 | 321 ft | 147 kts | 43° |
| 2026-05-06 23:30 | 32.68697 | -16.78700 | 237 ft | 145 kts | 38° |
| 2026-05-06 23:31 | 32.69370 | -16.77919 | 168 ft | 118 kts | 41° |
| 2026-05-06 23:31 | 32.69821 | -16.77410 | 182 ft | 64 kts | 44° |
| 2026-05-06 23:31 | 32.69952 | -16.77205 | 186 ft | 12 kts | 108° |
| 2026-05-06 23:31 | 32.69906 | -16.77178 | 192 ft | 11 kts | 183° |
| 2026-05-06 23:32 | 32.69799 | -16.77227 | 179 ft | 18 kts | 223° |
| 2026-05-06 23:32 | 32.69696 | -16.77352 | 168 ft | 24 kts | 227° |
| 2026-05-06 23:32 | 32.69585 | -16.77491 | 167 ft | 23 kts | 226° |
| 2026-05-06 23:32 | 32.69475 | -16.77626 | 167 ft | 23 kts | 226° |
| 2026-05-06 23:33 | 32.69391 | -16.77729 | 167 ft | 3 kts | 214° |
| 2026-05-06 23:33 | 32.69386 | -16.77731 | 167 ft | 3 kts | 196° |
| 2026-05-06 23:33 | 32.69368 | -16.77728 | 167 ft | 5 kts | 150° |
| 2026-05-06 23:33 | 32.69341 | -16.77701 | 167 ft | 4 kts | 139° |
| 2026-05-06 23:34 | 32.69333 | -16.77694 | 167 ft | 0 kts | 139° |
| 2026-05-06 23:34 | 32.69333 | -16.77693 | 167 ft | 0 kts | 139° |